Time;durP1;ratioP1;P1;durP2;ratioP2;P2;SDS_P1;SDS_P2;PMS_P1;PMS_P2;Temp;Humidity;BMP_temperature;BMP_pressure;BME280_temperature;BME280_humidity;BME280_pressure;Samples;Min_cycle;Max_cycle;Signal;HPM_P1;HPM_P2
2021/09/19 00:02:55;;;;;;;22.02;5.05;;;17.10;69.70;;;;;;5039309;28;20431;-69
2021/09/19 00:06:01;;;;;;;23.38;4.97;;;17.10;69.70;;;;;;5047288;28;20021;-69
2021/09/19 00:09:08;;;;;;;23.73;5.60;;;17.10;69.40;;;;;;5043335;28;20156;-69
2021/09/19 00:12:14;;;;;;;28.98;6.30;;;17.10;69.50;;;;;;5042380;28;20033;-70
2021/09/19 00:15:20;;;;;;;19.15;6.10;;;17.20;69.50;;;;;;5046231;28;20021;-70
2021/09/19 00:18:26;;;;;;;15.52;5.22;;;17.10;69.30;;;;;;5046276;28;20025;-70
2021/09/19 00:21:32;;;;;;;24.63;8.10;;;17.10;69.30;;;;;;5041128;28;20418;-70
2021/09/19 00:24:38;;;;;;;19.42;6.22;;;17.10;69.10;;;;;;5045917;28;20021;-70
2021/09/19 00:27:44;;;;;;;22.65;6.78;;;17.10;68.90;;;;;;5041627;28;20048;-70
2021/09/19 00:30:11;;;;;;;25.10;8.60;;;17.10;68.90;;;;;;5040749;28;20021;-70
2021/09/19 00:32:38;;;;;;;21.98;4.68;;;17.20;69.10;;;;;;5047262;28;20033;-70
2021/09/19 00:35:07;;;;;;;22.95;6.07;;;17.10;68.90;;;;;;5051780;28;20049;-70
2021/09/19 00:37:33;;;;;;;25.25;6.72;;;17.20;68.90;;;;;;5043154;28;20471;-70
2021/09/19 00:40:00;;;;;;;19.13;5.22;;;17.10;68.70;;;;;;5043727;28;20379;-70
2021/09/19 00:42:26;;;;;;;21.42;6.07;;;17.10;69.00;;;;;;5040705;28;20013;-70
2021/09/19 00:45:02;;;;;;;19.25;5.65;;;17.10;69.00;;;;;;5041543;28;20025;-70
2021/09/19 00:47:29;;;;;;;29.38;6.38;;;17.20;68.90;;;;;;5044512;28;20021;-70
2021/09/19 00:49:55;;;;;;;22.80;5.13;;;17.20;68.90;;;;;;5041232;28;20045;-70
2021/09/19 00:52:22;;;;;;;24.38;6.65;;;17.10;69.00;;;;;;5042250;28;20063;-69
2021/09/19 00:54:50;;;;;;;21.33;4.80;;;17.20;69.10;;;;;;5045470;28;20052;-70
2021/09/19 00:57:17;;;;;;;20.33;4.78;;;17.20;69.10;;;;;;5045245;28;20009;-70
2021/09/19 00:59:49;;;;;;;18.38;4.55;;;17.10;69.00;;;;;;5045068;28;20038;-69
2021/09/19 01:02:17;;;;;;;29.20;7.07;;;17.10;68.90;;;;;;5036653;28;20021;-69
2021/09/19 01:04:43;;;;;;;23.52;6.13;;;17.10;69.10;;;;;;5046251;28;20028;-70
2021/09/19 01:07:14;;;;;;;19.48;6.25;;;17.10;69.10;;;;;;5045054;28;20385;-69
2021/09/19 01:09:41;;;;;;;22.90;5.07;;;17.10;68.90;;;;;;5046304;28;20060;-69
2021/09/19 01:12:09;;;;;;;22.48;5.32;;;17.10;69.20;;;;;;5044248;28;20057;-70
2021/09/19 01:14:38;;;;;;;19.15;5.38;;;17.10;69.30;;;;;;5042994;28;20017;-69
2021/09/19 01:17:06;;;;;;;26.95;5.22;;;17.10;69.30;;;;;;5045599;28;20025;-69
2021/09/19 01:19:35;;;;;;;20.02;6.38;;;17.10;69.30;;;;;;5044760;28;20014;-70
2021/09/19 01:22:03;;;;;;;21.85;5.43;;;17.10;69.40;;;;;;5041772;28;20028;-69
2021/09/19 01:24:31;;;;;;;20.90;4.55;;;17.10;69.50;;;;;;5042905;28;20056;-69
2021/09/19 01:26:57;;;;;;;26.42;5.28;;;17.10;69.60;;;;;;5043380;28;20040;-69
2021/09/19 01:29:24;;;;;;;24.70;6.80;;;17.10;69.60;;;;;;5043263;28;20024;-70
2021/09/19 01:31:50;;;;;;;22.73;6.80;;;17.10;69.70;;;;;;5045723;28;20046;-69
2021/09/19 01:34:17;;;;;;;26.27;5.70;;;17.10;70.10;;;;;;5045759;28;20025;-69
2021/09/19 01:36:43;;;;;;;22.27;6.28;;;17.10;70.20;;;;;;5040818;28;20017;-70
2021/09/19 01:39:10;;;;;;;23.10;6.88;;;17.10;70.80;;;;;;5042310;28;20020;-70
2021/09/19 01:41:37;;;;;;;23.60;5.80;;;17.10;71.00;;;;;;5043742;28;20017;-69
2021/09/19 01:44:05;;;;;;;18.42;5.15;;;17.10;71.00;;;;;;5041860;28;20017;-69
2021/09/19 01:46:33;;;;;;;21.38;5.25;;;17.10;71.10;;;;;;5047859;28;20082;-69
2021/09/19 01:48:59;;;;;;;20.90;5.63;;;17.10;71.50;;;;;;5048793;28;20045;-70
2021/09/19 01:51:26;;;;;;;18.48;4.50;;;17.10;71.60;;;;;;5048037;28;20083;-70
2021/09/19 01:53:53;;;;;;;26.77;6.35;;;17.10;71.40;;;;;;5045624;28;20025;-70
2021/09/19 01:56:21;;;;;;;14.98;5.07;;;17.10;71.80;;;;;;5049163;28;20017;-69
2021/09/19 01:58:52;;;;;;;20.00;4.97;;;17.10;72.20;;;;;;5047300;28;20056;-69
2021/09/19 02:01:23;;;;;;;15.80;6.00;;;17.00;72.60;;;;;;5047028;28;20029;-70
2021/09/19 02:03:53;;;;;;;26.25;5.70;;;17.00;72.90;;;;;;5050637;28;20029;-69
2021/09/19 02:06:20;;;;;;;23.10;6.50;;;17.00;73.10;;;;;;5048002;28;20113;-69
2021/09/19 02:08:47;;;;;;;30.55;7.55;;;17.00;73.10;;;;;;5045979;28;20048;-69
2021/09/19 02:11:15;;;;;;;104.30;73.28;;;17.00;73.20;;;;;;5046763;28;20032;-68
2021/09/19 02:13:43;;;;;;;37.88;17.08;;;17.00;73.50;;;;;;5048161;28;20017;-68
2021/09/19 02:16:10;;;;;;;20.60;5.90;;;17.00;73.70;;;;;;5047447;28;20009;-69
2021/09/19 02:18:37;;;;;;;17.58;5.10;;;17.00;73.60;;;;;;5047974;28;20061;-69
2021/09/19 02:21:05;;;;;;;18.20;7.15;;;17.00;73.40;;;;;;5050263;28;20025;-69
2021/09/19 02:23:32;;;;;;;23.73;5.70;;;17.00;73.40;;;;;;5045070;28;20476;-69
2021/09/19 02:25:59;;;;;;;26.42;6.40;;;16.90;73.70;;;;;;5046686;28;20026;-69
2021/09/19 02:28:25;;;;;;;15.50;4.78;;;16.90;74.10;;;;;;5046639;28;20045;-70
2021/09/19 02:30:52;;;;;;;17.08;5.25;;;16.80;74.50;;;;;;5046186;28;20033;-69
2021/09/19 02:33:19;;;;;;;19.80;4.28;;;16.90;74.90;;;;;;5049360;28;20067;-69
2021/09/19 02:35:45;;;;;;;16.88;6.75;;;16.90;75.00;;;;;;5045388;28;20405;-69
2021/09/19 02:38:12;;;;;;;14.57;6.20;;;16.90;75.10;;;;;;5046403;28;20044;-69
2021/09/19 02:40:39;;;;;;;16.58;5.72;;;16.90;75.00;;;;;;5048102;28;20032;-69
2021/09/19 02:43:05;;;;;;;24.10;4.85;;;16.80;74.60;;;;;;5050102;28;20024;-70
2021/09/19 02:45:32;;;;;;;20.25;5.47;;;16.80;75.00;;;;;;5046540;28;20100;-69
2021/09/19 02:47:59;;;;;;;19.38;5.25;;;16.70;75.10;;;;;;5040235;28;20035;-69
2021/09/19 02:50:26;;;;;;;19.17;5.70;;;16.70;75.40;;;;;;5048085;28;20094;-70
2021/09/19 02:52:53;;;;;;;25.45;5.32;;;16.70;75.70;;;;;;5048790;28;20022;-69
2021/09/19 02:55:21;;;;;;;23.67;5.45;;;16.70;75.70;;;;;;5044101;28;20032;-69
2021/09/19 02:57:48;;;;;;;19.13;5.43;;;16.70;75.80;;;;;;5044129;28;20087;-69
2021/09/19 03:00:19;;;;;;;19.50;4.40;;;16.70;75.80;;;;;;5050351;28;20384;-70
2021/09/19 03:02:46;;;;;;;19.35;4.15;;;16.70;76.00;;;;;;5046209;28;20548;-70
2021/09/19 03:05:13;;;;;;;46.38;28.85;;;16.70;76.10;;;;;;5049798;28;20021;-70
2021/09/19 03:07:41;;;;;;;41.25;18.67;;;16.70;76.20;;;;;;5047271;28;20026;-69
2021/09/19 03:10:10;;;;;;;25.75;7.22;;;16.70;76.50;;;;;;5046816;28;20063;-70
2021/09/19 03:12:36;;;;;;;17.50;6.30;;;16.70;76.70;;;;;;5043336;28;20033;-70
2021/09/19 03:15:03;;;;;;;24.33;5.47;;;16.70;76.60;;;;;;5049610;28;20017;-70
2021/09/19 03:17:30;;;;;;;15.15;6.30;;;16.70;76.40;;;;;;5048452;28;20024;-70
2021/09/19 03:19:57;;;;;;;15.75;5.00;;;16.60;76.20;;;;;;5044949;28;20009;-70
2021/09/19 03:22:24;;;;;;;21.13;5.18;;;16.70;76.20;;;;;;5039805;28;20017;-70
2021/09/19 03:24:50;;;;;;;16.05;5.30;;;16.60;76.00;;;;;;5037049;28;20032;-70
2021/09/19 03:27:17;;;;;;;21.27;5.35;;;16.60;76.10;;;;;;5037971;28;20021;-70
2021/09/19 03:29:43;;;;;;;28.13;5.57;;;16.60;76.10;;;;;;5040943;28;20078;-69
2021/09/19 03:32:49;;;;;;;21.88;5.30;;;16.60;76.20;;;;;;5036186;28;20068;-70
2021/09/19 03:35:56;;;;;;;27.42;7.20;;;16.60;76.30;;;;;;5035122;28;20485;-70
2021/09/19 03:39:02;;;;;;;19.45;5.32;;;16.70;76.50;;;;;;5037150;28;20017;-71
2021/09/19 03:42:08;;;;;;;17.67;5.50;;;16.70;76.70;;;;;;5035647;28;20095;-71
2021/09/19 03:45:14;;;;;;;19.25;5.22;;;16.60;77.00;;;;;;5041821;28;20025;-71
2021/09/19 03:48:20;;;;;;;18.63;5.90;;;16.60;77.60;;;;;;5046855;28;20365;-71
2021/09/19 03:51:26;;;;;;;18.83;5.45;;;16.60;78.00;;;;;;5044615;28;20037;-71
2021/09/19 03:54:32;;;;;;;22.98;6.43;;;16.60;77.70;;;;;;5034811;28;20163;-71
2021/09/19 03:57:38;;;;;;;16.02;4.38;;;16.50;77.80;;;;;;5038628;28;20029;-71
2021/09/19 04:00:44;;;;;;;25.85;5.18;;;16.60;78.30;;;;;;5048157;28;20041;-71
2021/09/19 04:03:50;;;;;;;22.73;4.85;;;16.60;78.10;;;;;;5045668;28;20067;-70
2021/09/19 04:06:17;;;;;;;18.02;5.90;;;16.60;77.90;;;;;;5047250;28;20045;-70
2021/09/19 04:08:43;;;;;;;21.60;5.60;;;16.70;77.80;;;;;;5045974;28;20013;-71
2021/09/19 04:11:09;;;;;;;22.02;6.93;;;16.60;77.70;;;;;;5045131;28;20044;-71
2021/09/19 04:13:36;;;;;;;18.55;4.95;;;16.60;78.20;;;;;;5044271;28;20017;-71
2021/09/19 04:16:03;;;;;;;24.52;7.57;;;16.60;78.50;;;;;;5046992;28;20024;-70
2021/09/19 04:18:29;;;;;;;24.92;4.85;;;16.60;78.70;;;;;;5045910;28;20024;-71
2021/09/19 04:20:55;;;;;;;23.65;5.22;;;16.60;79.00;;;;;;5043605;28;20066;-71
2021/09/19 04:23:25;;;;;;;14.75;4.68;;;16.60;79.10;;;;;;5045743;28;20013;-70
2021/09/19 04:25:51;;;;;;;17.17;5.63;;;16.60;79.30;;;;;;5044321;28;20022;-70
2021/09/19 04:28:18;;;;;;;18.08;6.05;;;16.60;79.60;;;;;;5046880;28;20013;-70
2021/09/19 04:30:44;;;;;;;25.88;4.78;;;16.60;79.80;;;;;;5047320;28;20025;-71
2021/09/19 04:33:11;;;;;;;24.20;7.53;;;16.60;80.00;;;;;;5046184;28;20499;-70
2021/09/19 04:35:38;;;;;;;23.83;6.10;;;16.60;80.20;;;;;;5043998;28;20043;-71
2021/09/19 04:38:04;;;;;;;20.33;5.90;;;16.60;80.10;;;;;;5041727;28;20067;-72
2021/09/19 04:40:31;;;;;;;23.50;7.55;;;16.60;80.00;;;;;;5045632;28;20044;-71
2021/09/19 04:42:57;;;;;;;16.10;4.88;;;16.60;79.70;;;;;;5044722;28;20065;-71
2021/09/19 04:45:24;;;;;;;15.80;5.80;;;16.50;79.60;;;;;;5039256;28;20386;-70
2021/09/19 04:47:50;;;;;;;14.27;5.35;;;16.50;79.80;;;;;;5037326;28;20087;-70
2021/09/19 04:50:17;;;;;;;24.02;6.47;;;16.50;79.90;;;;;;5036224;28;20021;-71
2021/09/19 04:52:43;;;;;;;16.80;4.93;;;16.50;79.80;;;;;;5044467;28;20056;-72
2021/09/19 04:55:10;;;;;;;17.00;5.43;;;16.50;79.90;;;;;;5040394;28;20070;-71
2021/09/19 04:57:36;;;;;;;31.17;10.35;;;16.60;79.90;;;;;;5043318;28;20024;-71
2021/09/19 05:00:05;;;;;;;15.85;5.88;;;16.60;79.40;;;;;;5039089;28;20416;-71
2021/09/19 05:02:31;;;;;;;23.80;5.97;;;16.50;79.00;;;;;;5045934;28;20550;-69
2021/09/19 05:04:58;;;;;;;20.52;4.40;;;16.50;79.10;;;;;;5043740;28;20479;-71
2021/09/19 05:07:24;;;;;;;22.90;7.15;;;16.50;79.30;;;;;;5036516;28;20075;-70
2021/09/19 05:09:51;;;;;;;26.23;6.45;;;16.50;79.30;;;;;;5039524;28;20059;-71
2021/09/19 05:12:57;;;;;;;22.73;5.57;;;16.50;79.50;;;;;;5036143;28;20057;-69
2021/09/19 05:16:03;;;;;;;26.27;6.28;;;16.50;80.50;;;;;;5035738;28;20021;-70
2021/09/19 05:19:09;;;;;;;18.58;6.13;;;16.40;81.20;;;;;;5035089;28;20105;-72
2021/09/19 05:22:15;;;;;;;16.52;4.70;;;16.40;81.60;;;;;;5041219;28;20036;-71
2021/09/19 05:25:21;;;;;;;22.17;6.25;;;16.40;82.00;;;;;;5040862;28;20036;-72
2021/09/19 05:28:27;;;;;;;16.27;5.55;;;16.30;83.00;;;;;;5043284;28;20166;-71
2021/09/19 05:31:33;;;;;;;16.70;5.03;;;16.30;82.90;;;;;;5039886;28;20389;-71
2021/09/19 05:34:39;;;;;;;19.90;4.75;;;16.30;83.00;;;;;;5042412;28;20056;-71
2021/09/19 05:37:45;;;;;;;23.67;5.88;;;16.30;82.90;;;;;;5047659;28;20067;-71
2021/09/19 05:40:51;;;;;;;50.58;29.77;;;16.30;83.40;;;;;;5043737;28;20091;-72
2021/09/19 05:43:57;;;;;;;14.38;6.30;;;16.40;83.70;;;;;;5039961;28;20032;-70
2021/09/19 05:47:04;;;;;;;18.40;5.10;;;16.40;83.60;;;;;;5045197;28;20025;-69
2021/09/19 05:50:10;;;;;;;17.10;4.25;;;16.40;83.30;;;;;;5041256;28;20088;-69
2021/09/19 05:53:16;;;;;;;18.92;4.32;;;16.40;83.40;;;;;;5040626;28;20037;-71
2021/09/19 05:56:22;;;;;;;29.23;7.00;;;16.40;83.60;;;;;;5035535;28;20021;-71
2021/09/19 05:59:28;;;;;;;22.70;4.55;;;16.30;83.60;;;;;;5040042;28;20050;-71
2021/09/19 06:02:34;;;;;;;27.15;5.68;;;16.30;84.20;;;;;;5039542;28;20105;-71
2021/09/19 06:05:40;;;;;;;17.33;4.70;;;16.30;84.50;;;;;;5044603;28;20075;-72
2021/09/19 06:08:46;;;;;;;17.92;4.22;;;16.40;84.50;;;;;;5039891;28;20025;-70
2021/09/19 06:11:52;;;;;;;12.05;4.55;;;16.40;84.60;;;;;;5043641;28;20044;-72
2021/09/19 06:15:02;;;;;;;23.60;5.70;;;16.40;84.80;;;;;;5039341;28;20021;-72
2021/09/19 06:18:08;;;;;;;27.63;13.57;;;16.50;84.60;;;;;;5036934;28;20112;-71
2021/09/19 06:21:14;;;;;;;37.67;14.43;;;16.50;84.90;;;;;;5040228;28;20045;-72
2021/09/19 06:24:20;;;;;;;17.35;5.68;;;16.60;84.50;;;;;;5037257;28;20026;-72
2021/09/19 06:27:26;;;;;;;18.45;4.38;;;16.60;84.30;;;;;;5036355;28;20465;-71
2021/09/19 06:30:32;;;;;;;17.50;4.72;;;16.60;84.20;;;;;;5039520;28;20010;-72
2021/09/19 06:33:38;;;;;;;19.20;5.32;;;16.70;84.30;;;;;;5038727;28;20025;-74
2021/09/19 06:36:45;;;;;;;16.15;5.40;;;16.80;84.20;;;;;;5038957;28;20095;-73
2021/09/19 06:39:31;;;;;;;;;;;16.80;84.20;;;;;;5035573;28;20109;-70
2021/09/19 06:42:35;;;;;;;14.02;5.75;;;16.80;84.00;;;;;;5038439;28;19963;-73
2021/09/19 06:45:02;;;;;;;29.02;13.60;;;16.80;84.00;;;;;;5038123;28;20030;-72
2021/09/19 06:47:28;;;;;;;16.15;4.68;;;16.90;84.00;;;;;;5044645;28;20099;-78
2021/09/19 06:49:55;;;;;;;17.90;4.05;;;16.90;84.00;;;;;;5040925;28;20021;-79
2021/09/19 06:52:22;;;;;;;23.48;4.88;;;17.00;83.90;;;;;;5038355;28;20036;-78
2021/09/19 06:54:48;;;;;;;19.17;4.55;;;17.00;83.80;;;;;;5039130;28;20025;-77
2021/09/19 06:57:15;;;;;;;13.45;3.42;;;17.00;83.60;;;;;;5035699;28;20026;-78
2021/09/19 06:59:41;;;;;;;24.33;4.88;;;17.10;83.60;;;;;;5037141;28;20378;-77
2021/09/19 07:02:08;;;;;;;17.50;4.45;;;17.00;83.30;;;;;;5041209;28;20186;-76
2021/09/19 07:05:14;;;;;;;18.55;4.45;;;17.00;83.90;;;;;;5039253;28;20466;-77
2021/09/19 07:08:20;;;;;;;30.63;17.08;;;17.00;85.00;;;;;;5036888;28;20468;-77
2021/09/19 07:10:47;;;;;;;12.82;4.03;;;17.00;85.40;;;;;;5044283;28;20061;-78
2021/09/19 07:13:14;;;;;;;18.55;3.63;;;17.00;85.60;;;;;;5038332;28;20035;-75
2021/09/19 07:15:43;;;;;;;11.52;3.95;;;17.00;86.30;;;;;;5040814;28;20029;-78
2021/09/19 07:18:11;;;;;;;19.80;4.32;;;17.00;86.00;;;;;;5038425;28;20013;-80
2021/09/19 07:20:38;;;;;;;12.02;4.50;;;17.00;86.20;;;;;;5037752;28;20017;-82
2021/09/19 07:23:04;;;;;;;18.70;5.25;;;17.00;86.40;;;;;;5038877;28;20104;-79
2021/09/19 07:25:31;;;;;;;18.65;4.78;;;17.00;87.00;;;;;;5034295;28;20018;-74
2021/09/19 07:27:57;;;;;;;16.52;4.85;;;17.00;87.00;;;;;;5035417;28;20013;-77
2021/09/19 07:30:24;;;;;;;20.85;5.85;;;17.00;87.60;;;;;;5039932;28;20071;-76
2021/09/19 07:32:51;;;;;;;21.40;6.18;;;17.00;88.00;;;;;;5037912;28;20033;-77
2021/09/19 07:35:54;;;;;;;21.17;4.43;;;17.10;88.40;;;;;;5035300;28;20009;-73
2021/09/19 07:39:01;;;;;;;15.20;5.07;;;17.10;88.40;;;;;;5033432;28;20386;-72
2021/09/19 07:41:34;;;;;;;19.38;6.10;;;17.20;87.90;;;;;;5034344;28;20017;-75
2021/09/19 07:44:40;;;;;;;25.20;6.00;;;17.10;88.10;;;;;;5016787;28;20045;-74
2021/09/19 07:47:07;;;;;;;22.02;5.30;;;17.10;88.60;;;;;;5037554;28;20022;-76
2021/09/19 07:50:13;;;;;;;23.75;5.57;;;17.20;89.20;;;;;;5033171;28;20056;-75
2021/09/19 07:52:40;;;;;;;30.10;6.07;;;17.20;89.50;;;;;;5032673;28;20083;-72
2021/09/19 07:55:46;;;;;;;13.27;4.82;;;17.20;89.60;;;;;;5037720;28;20124;-74
2021/09/19 07:58:52;;;;;;;13.40;4.78;;;17.20;90.00;;;;;;5033475;28;20021;-73
2021/09/19 08:01:39;;;;;;;11.23;3.90;;;17.20;90.20;;;;;;5033682;28;20091;-75
2021/09/19 08:04:45;;;;;;;26.65;6.82;;;17.20;90.30;;;;;;5035932;28;20017;-75
2021/09/19 08:07:12;;;;;;;16.88;4.28;;;17.30;90.50;;;;;;5036692;28;20067;-76
2021/09/19 08:10:18;;;;;;;22.30;4.78;;;17.30;90.60;;;;;;5035031;28;20043;-78
2021/09/19 08:13:24;;;;;;;17.83;4.65;;;17.30;90.40;;;;;;5036401;28;20064;-75
2021/09/19 08:16:30;;;;;;;17.05;5.70;;;17.40;90.30;;;;;;5036332;28;20451;-75
2021/09/19 08:19:36;;;;;;;21.70;5.57;;;17.50;90.20;;;;;;5032249;28;20183;-76
2021/09/19 08:22:42;;;;;;;19.35;5.45;;;17.60;89.70;;;;;;5035465;28;20027;-76
2021/09/19 08:25:48;;;;;;;19.35;5.55;;;17.60;89.00;;;;;;5036927;28;20428;-77
2021/09/19 08:28:54;;;;;;;25.02;7.43;;;17.70;88.80;;;;;;5037220;28;20021;-76
2021/09/19 08:32:00;;;;;;;18.83;6.00;;;17.70;88.30;;;;;;5037416;28;20024;-77
2021/09/19 08:34:27;;;;;;;25.60;5.00;;;17.80;87.90;;;;;;5036725;28;20033;-76
2021/09/19 08:37:33;;;;;;;20.08;4.45;;;17.80;86.90;;;;;;5036279;28;20086;-77
2021/09/19 08:40:39;;;;;;;17.35;5.00;;;17.90;86.90;;;;;;5037932;28;20037;-78
2021/09/19 08:43:45;;;;;;;18.70;5.03;;;17.90;86.30;;;;;;5038334;28;20067;-79
2021/09/19 08:46:16;;;;;;;;;;;18.00;85.60;;;;;;5036581;28;20018;-79
2021/09/19 08:48:43;;;;;;;14.02;4.10;;;18.10;85.00;;;;;;5033916;28;19905;-78
2021/09/19 08:51:46;;;;;;;17.00;3.40;;;18.10;84.50;;;;;;5033040;28;20041;-77
2021/09/19 08:54:52;;;;;;;11.52;3.63;;;18.10;83.70;;;;;;5035838;28;20022;-78
2021/09/19 08:57:19;;;;;;;15.30;3.97;;;18.20;83.70;;;;;;5043159;28;20052;-78
2021/09/19 08:59:50;;;;;;;13.32;3.88;;;18.30;83.90;;;;;;5048595;28;20052;-78
2021/09/19 09:02:17;;;;;;;15.07;4.28;;;18.30;83.70;;;;;;5045833;28;20131;-78
2021/09/19 09:04:45;;;;;;;18.80;5.47;;;18.40;82.70;;;;;;5048320;28;20024;-77
2021/09/19 09:07:13;;;;;;;14.45;5.45;;;18.40;82.30;;;;;;5051105;28;20019;-77
2021/09/19 09:09:52;;;;;;;22.70;5.20;;;18.40;82.30;;;;;;5048544;28;20021;-78
2021/09/19 09:12:19;;;;;;;16.02;4.45;;;18.40;81.70;;;;;;5045959;28;20032;-78
2021/09/19 09:15:05;;;;;;;12.73;3.75;;;18.30;81.20;;;;;;5048321;28;20536;-78
2021/09/19 09:17:31;;;;;;;15.68;4.15;;;18.30;81.80;;;;;;5045794;28;20351;-78
2021/09/19 09:20:01;;;;;;;17.38;3.97;;;18.40;82.10;;;;;;5047571;28;20025;-77
2021/09/19 09:22:33;;;;;;;18.80;4.30;;;18.40;81.40;;;;;;5046866;28;20747;-79
2021/09/19 09:25:13;;;;;;;14.57;3.55;;;18.50;80.90;;;;;;5047497;28;20028;-74
2021/09/19 09:27:48;;;;;;;20.08;4.50;;;18.50;80.60;;;;;;5046145;28;20028;-74
2021/09/19 09:30:16;;;;;;;17.90;4.70;;;18.60;80.50;;;;;;5048382;28;20083;-73
2021/09/19 09:32:59;;;;;;;16.80;5.18;;;18.60;80.10;;;;;;5046123;28;20286;-76
2021/09/19 09:35:37;;;;;;;20.95;7.97;;;18.60;79.40;;;;;;5050995;28;20025;-74
2021/09/19 09:38:21;;;;;;;18.02;5.35;;;18.60;79.60;;;;;;5048763;28;20041;-77
2021/09/19 09:40:48;;;;;;;18.38;4.43;;;18.70;79.70;;;;;;5046587;28;20021;-74
2021/09/19 09:43:17;;;;;;;14.73;4.05;;;18.70;79.50;;;;;;5045731;28;20052;-76
2021/09/19 09:45:47;;;;;;;16.75;4.30;;;18.70;79.50;;;;;;5047515;28;20025;-81
2021/09/19 09:48:31;;;;;;;11.35;3.42;;;18.70;79.00;;;;;;5047695;28;20029;-83
2021/09/19 09:51:20;;;;;;;17.00;4.20;;;18.70;78.40;;;;;;5052116;28;20053;-78
2021/09/19 09:53:59;;;;;;;13.98;3.95;;;18.70;78.20;;;;;;5045227;28;20018;-86
2021/09/19 09:56:26;;;;;;;13.02;3.70;;;18.70;78.50;;;;;;5046279;28;20021;-71
2021/09/19 09:58:54;;;;;;;22.92;6.25;;;18.60;78.30;;;;;;5050329;28;20052;-85
2021/09/19 10:01:21;;;;;;;17.08;4.65;;;18.60;78.10;;;;;;5050220;28;20113;-80
2021/09/19 10:03:48;;;;;;;16.77;4.93;;;18.60;78.20;;;;;;5049443;28;20039;-85
2021/09/19 10:06:15;;;;;;;18.77;5.63;;;18.60;78.30;;;;;;5044333;28;20017;-77
2021/09/19 10:08:42;;;;;;;17.00;7.30;;;18.70;78.80;;;;;;5049830;28;20021;-81
2021/09/19 10:11:10;;;;;;;13.93;3.60;;;18.60;78.70;;;;;;5047095;28;20076;-81
2021/09/19 10:13:40;;;;;;;14.05;4.53;;;18.70;78.70;;;;;;5048553;28;20017;-75
2021/09/19 10:16:07;;;;;;;19.27;5.65;;;18.70;77.80;;;;;;5047001;28;20017;-75
2021/09/19 10:18:34;;;;;;;16.08;3.92;;;18.70;77.50;;;;;;5049275;28;20030;-78
2021/09/19 10:21:02;;;;;;;11.40;3.55;;;18.80;77.80;;;;;;5051426;28;20349;-77
2021/09/19 10:23:32;;;;;;;15.75;3.25;;;18.90;77.50;;;;;;5046270;28;20242;-86
2021/09/19 10:26:07;;;;;;;18.70;4.15;;;19.00;77.20;;;;;;5050614;28;20021;-70
2021/09/19 10:28:36;;;;;;;17.98;3.75;;;19.00;77.10;;;;;;5043190;28;20044;-71
2021/09/19 10:31:09;;;;;;;16.55;4.72;;;19.10;76.70;;;;;;5046849;28;20069;-75
2021/09/19 10:33:39;;;;;;;15.85;4.18;;;19.10;76.60;;;;;;5045779;28;20048;-79
2021/09/19 10:36:22;;;;;;;16.88;4.30;;;19.10;77.10;;;;;;5050411;28;20490;-76
2021/09/19 10:38:48;;;;;;;14.20;3.88;;;19.10;78.40;;;;;;5046438;28;20075;-72
2021/09/19 10:41:17;;;;;;;12.43;3.78;;;19.00;78.80;;;;;;5050785;28;20383;-76
2021/09/19 10:43:55;;;;;;;19.23;3.65;;;19.00;78.40;;;;;;5042480;28;20060;-81
2021/09/19 10:46:37;;;;;;;11.82;3.20;;;18.90;78.40;;;;;;5046320;28;20024;-76
2021/09/19 10:49:19;;;;;;;12.02;3.45;;;19.00;78.90;;;;;;5044967;28;20503;-76
2021/09/19 10:52:01;;;;;;;14.13;3.35;;;18.90;79.10;;;;;;5043348;28;20036;-72
2021/09/19 10:54:51;;;;;;;11.32;3.60;;;18.90;79.10;;;;;;5031467;28;20372;-73
2021/09/19 10:57:19;;;;;;;13.57;4.13;;;19.00;78.10;;;;;;5034630;28;20072;-75
2021/09/19 11:00:18;;;;;;;15.63;4.05;;;19.00;77.10;;;;;;5039255;28;20133;-73
2021/09/19 11:03:04;;;;;;;12.43;4.10;;;19.00;76.70;;;;;;5037021;28;20017;-74
2021/09/19 11:05:35;;;;;;;20.95;5.85;;;19.00;75.90;;;;;;5037395;28;20021;-71
2021/09/19 11:08:07;;;;;;;15.40;4.30;;;19.00;75.70;;;;;;5036230;28;20026;-78
2021/09/19 11:10:35;;;;;;;16.13;4.10;;;18.90;75.30;;;;;;5037354;28;20031;-73
2021/09/19 11:13:20;;;;;;;19.95;4.65;;;19.00;75.60;;;;;;5038338;28;20025;-76
2021/09/19 11:16:06;;;;;;;24.30;4.55;;;19.00;75.30;;;;;;5037660;28;20025;-75
2021/09/19 11:18:33;;;;;;;17.50;4.70;;;19.10;75.50;;;;;;5038514;28;20029;-69
2021/09/19 11:21:22;;;;;;;18.42;3.50;;;19.10;75.50;;;;;;5041018;28;20554;-74
2021/09/19 11:23:54;;;;;;;31.35;13.18;;;19.20;74.90;;;;;;5040009;28;20076;-74
2021/09/19 11:26:27;;;;;;;23.65;8.30;;;19.10;74.60;;;;;;5043928;28;20016;-76
2021/09/19 11:29:03;;;;;;;17.40;4.65;;;19.10;76.30;;;;;;5043137;28;20017;-73
2021/09/19 11:31:31;;;;;;;36.63;22.17;;;19.00;78.00;;;;;;5041322;28;20564;-75
2021/09/19 11:34:04;;;;;;;15.70;5.55;;;18.80;77.60;;;;;;5042690;28;20456;-73
2021/09/19 11:36:31;;;;;;;13.98;3.63;;;18.70;79.70;;;;;;5042504;28;20113;-71
2021/09/19 11:38:58;;;;;;;21.33;4.70;;;18.60;80.70;;;;;;5040069;28;20067;-76
2021/09/19 11:41:26;;;;;;;12.73;3.72;;;18.60;81.60;;;;;;5039612;28;20104;-79
2021/09/19 11:43:55;;;;;;;22.38;5.40;;;18.50;80.80;;;;;;5045013;28;20040;-77
2021/09/19 11:46:25;;;;;;;15.73;4.18;;;18.50;80.60;;;;;;5045174;28;20039;-70
2021/09/19 11:48:52;;;;;;;20.08;4.18;;;18.60;80.90;;;;;;5039227;28;21559;-78
2021/09/19 11:51:20;;;;;;;19.50;4.00;;;18.60;80.40;;;;;;5043551;28;20025;-76
2021/09/19 11:53:53;;;;;;;15.95;4.07;;;18.60;80.20;;;;;;5048298;28;20095;-76
2021/09/19 11:56:21;;;;;;;18.55;5.20;;;18.60;80.40;;;;;;5047028;28;20042;-75
2021/09/19 11:58:49;;;;;;;95.00;67.00;;;18.60;80.70;;;;;;5041235;28;20045;-75
2021/09/19 12:01:21;;;;;;;25.02;10.07;;;18.60;81.10;;;;;;5047886;28;20062;-75
2021/09/19 12:03:48;;;;;;;19.95;5.63;;;18.70;80.60;;;;;;5045783;28;20088;-76
2021/09/19 12:06:14;;;;;;;16.75;4.20;;;18.70;79.60;;;;;;5046556;28;20401;-76
2021/09/19 12:08:45;;;;;;;18.83;4.60;;;18.70;78.90;;;;;;5045938;28;20028;-76
2021/09/19 12:11:12;;;;;;;23.25;5.30;;;18.70;78.50;;;;;;5045584;28;20043;-74
2021/09/19 12:13:40;;;;;;;17.85;5.25;;;18.70;77.50;;;;;;5042452;28;20560;-76
2021/09/19 12:16:15;;;;;;;19.67;4.15;;;18.70;78.10;;;;;;5044584;28;20100;-74
2021/09/19 12:18:42;;;;;;;;;;;18.70;78.60;;;;;;5046757;28;20032;-74
2021/09/19 12:21:26;;;;;;;17.98;5.15;;;18.80;78.80;;;;;;5043823;28;19912;-77
2021/09/19 12:23:58;;;;;;;13.00;3.70;;;18.80;78.20;;;;;;5045220;28;20021;-75
2021/09/19 12:26:30;;;;;;;20.13;4.88;;;18.90;77.40;;;;;;5042863;28;20017;-75
2021/09/19 12:29:03;;;;;;;22.42;5.65;;;18.90;76.60;;;;;;5044357;28;20013;-75
2021/09/19 12:31:44;;;;;;;19.15;4.63;;;19.00;76.10;;;;;;5045671;28;20534;-75
2021/09/19 12:34:17;;;;;;;18.10;4.50;;;19.00;75.40;;;;;;5040989;28;20026;-73
2021/09/19 12:36:55;;;;;;;14.93;3.75;;;18.90;75.30;;;;;;5045078;28;20075;-76
2021/09/19 12:39:27;;;;;;;11.75;4.13;;;18.90;76.30;;;;;;5044363;28;20045;-75
2021/09/19 12:42:00;;;;;;;20.60;4.40;;;18.90;77.50;;;;;;5040344;28;20494;-76
2021/09/19 12:44:31;;;;;;;19.95;5.57;;;18.80;78.70;;;;;;5044522;28;20112;-76
2021/09/19 12:47:01;;;;;;;24.92;4.68;;;18.80;79.20;;;;;;5045405;28;20040;-76
2021/09/19 12:49:33;;;;;;;34.70;5.95;;;18.70;79.20;;;;;;5046795;28;20017;-79
2021/09/19 12:52:11;;;;;;;20.50;5.20;;;18.70;78.80;;;;;;5043623;28;20923;-76
2021/09/19 12:54:51;;;;;;;23.23;4.32;;;18.70;78.70;;;;;;5044574;28;20025;-76
2021/09/19 12:57:20;;;;;;;21.40;4.72;;;18.50;79.60;;;;;;5044100;28;20048;-82
2021/09/19 12:59:47;;;;;;;21.65;6.22;;;18.50;79.70;;;;;;5045679;28;20056;-76
2021/09/19 13:02:14;;;;;;;17.38;5.03;;;18.40;79.50;;;;;;5045088;28;20023;-76
2021/09/19 13:04:41;;;;;;;16.92;4.82;;;18.50;79.30;;;;;;5045447;28;20037;-76
2021/09/19 13:07:08;;;;;;;22.45;5.25;;;18.50;79.20;;;;;;5044104;28;20060;-76
2021/09/19 13:09:35;;;;;;;23.58;6.20;;;18.50;78.80;;;;;;5046588;28;20191;-78
2021/09/19 13:12:04;;;;;;;32.58;20.13;;;18.50;78.60;;;;;;5040352;28;20036;-78
2021/09/19 13:14:31;;;;;;;19.17;5.25;;;18.50;78.20;;;;;;5045264;28;20032;-77
2021/09/19 13:16:58;;;;;;;18.17;4.95;;;18.50;78.50;;;;;;5042887;28;20372;-79
2021/09/19 13:19:24;;;;;;;27.25;5.93;;;18.40;78.60;;;;;;5045250;28;20056;-78
2021/09/19 13:21:51;;;;;;;16.50;3.97;;;18.40;79.40;;;;;;5045040;28;20014;-74
2021/09/19 13:24:21;;;;;;;23.42;6.55;;;18.40;80.20;;;;;;5043612;28;20056;-73
2021/09/19 13:26:51;;;;;;;19.10;5.00;;;18.30;80.60;;;;;;5042830;28;20033;-72
2021/09/19 13:29:19;;;;;;;26.38;5.32;;;18.40;81.20;;;;;;5044094;28;20021;-73
2021/09/19 13:31:47;;;;;;;25.15;5.88;;;18.40;80.70;;;;;;5041850;28;20038;-75
2021/09/19 13:34:15;;;;;;;23.58;5.93;;;18.40;80.20;;;;;;5041146;28;20009;-75